createdAt,value
2018-08-07T00:00:45.070Z,0.00
2018-08-07T00:01:45.057Z,0.00
2018-08-07T00:02:45.049Z,0.00
2018-08-07T00:03:45.032Z,0.00
2018-08-07T00:04:45.024Z,0.00
2018-08-07T00:05:45.006Z,0.00
2018-08-07T00:06:44.991Z,0.00
2018-08-07T00:07:44.979Z,0.00
2018-08-07T00:08:44.968Z,0.00
2018-08-07T00:09:44.955Z,0.00
2018-08-07T00:10:44.942Z,0.00
2018-08-07T00:11:44.935Z,0.00
2018-08-07T00:12:44.914Z,0.00
2018-08-07T00:13:44.903Z,0.00
2018-08-07T00:14:44.890Z,0.00
2018-08-07T00:15:44.876Z,0.00
2018-08-07T00:16:44.864Z,0.00
2018-08-07T00:17:44.852Z,0.00
2018-08-07T00:18:44.838Z,0.00
2018-08-07T00:19:44.825Z,0.00
2018-08-07T00:20:44.813Z,0.00
2018-08-07T00:21:44.800Z,0.00
2018-08-07T00:22:44.787Z,0.00
2018-08-07T00:23:44.775Z,0.00
2018-08-07T00:24:44.765Z,0.00
2018-08-07T00:25:44.749Z,0.00
2018-08-07T00:26:44.734Z,0.00
2018-08-07T00:27:44.723Z,0.00
2018-08-07T00:28:44.709Z,0.00
2018-08-07T00:29:44.697Z,0.00
2018-08-07T00:30:44.687Z,0.00
2018-08-07T00:31:44.670Z,0.00
2018-08-07T00:32:44.659Z,0.00
2018-08-07T00:33:44.646Z,0.00
2018-08-07T00:34:44.632Z,0.00
2018-08-07T00:35:44.718Z,0.00
2018-08-07T00:36:44.606Z,0.00
2018-08-07T00:37:44.607Z,0.00
2018-08-07T00:38:44.581Z,0.00
2018-08-07T00:39:44.567Z,0.00
2018-08-07T00:40:44.554Z,0.00
2018-08-07T00:41:44.541Z,0.00
2018-08-07T00:42:44.527Z,0.00
2018-08-07T00:43:44.518Z,0.00
2018-08-07T00:44:44.501Z,0.00
2018-08-07T00:45:44.490Z,0.00
2018-08-07T00:46:44.472Z,0.00
2018-08-07T00:47:44.462Z,0.00
2018-08-07T00:48:44.448Z,0.00
2018-08-07T00:49:44.434Z,0.00
2018-08-07T00:50:44.420Z,0.00
2018-08-07T00:51:44.412Z,0.00
2018-08-07T00:52:44.396Z,0.00
2018-08-07T00:53:44.386Z,0.00
2018-08-07T00:54:44.370Z,0.00
2018-08-07T00:55:44.359Z,0.00
2018-08-07T00:56:44.394Z,0.00
2018-08-07T00:57:44.329Z,0.00
2018-08-07T00:58:44.361Z,0.00
2018-08-07T00:59:44.304Z,0.00
2018-08-07T01:00:44.291Z,0.00
2018-08-07T01:01:44.277Z,0.00
2018-08-07T01:02:44.363Z,0.00
2018-08-07T01:03:44.251Z,0.00
2018-08-07T01:04:44.236Z,0.00
2018-08-07T01:05:44.229Z,0.00
2018-08-07T01:06:44.209Z,0.00
2018-08-07T01:07:44.198Z,0.00
2018-08-07T01:08:44.190Z,0.00
2018-08-07T01:09:47.601Z,0.00
2018-08-07T01:10:47.386Z,0.00
2018-08-07T01:11:44.143Z,0.00
2018-08-07T01:12:44.131Z,0.00
2018-08-07T01:13:44.122Z,0.00
2018-08-07T01:14:44.105Z,0.00
2018-08-07T01:15:44.094Z,0.00
2018-08-07T01:16:44.077Z,0.00
2018-08-07T01:17:44.065Z,0.00
2018-08-07T01:18:44.154Z,0.00
2018-08-07T01:19:44.038Z,0.00
2018-08-07T01:20:44.023Z,0.00
2018-08-07T01:21:44.011Z,0.00
2018-08-07T01:22:43.998Z,0.00
2018-08-07T01:23:43.984Z,0.00
2018-08-07T01:24:43.972Z,0.00
2018-08-07T01:25:43.958Z,0.00
2018-08-07T01:26:43.947Z,0.00
2018-08-07T01:27:43.934Z,0.00
2018-08-07T01:28:43.919Z,0.00
2018-08-07T01:29:43.910Z,0.00
2018-08-07T01:30:43.894Z,0.00
2018-08-07T01:31:43.879Z,0.00
2018-08-07T01:32:43.867Z,0.00
2018-08-07T01:33:43.896Z,0.00
2018-08-07T01:34:43.840Z,0.00
2018-08-07T01:35:43.828Z,0.00
2018-08-07T01:36:43.812Z,0.00
2018-08-07T01:37:43.803Z,0.00
2018-08-07T01:38:43.787Z,0.00
2018-08-07T01:39:43.776Z,0.00
2018-08-07T01:40:43.759Z,0.00
2018-08-07T01:41:43.745Z,0.00
2018-08-07T01:42:43.730Z,0.00
2018-08-07T01:43:43.721Z,0.00
2018-08-07T01:44:43.711Z,0.00
2018-08-07T01:45:43.701Z,0.00
2018-08-07T01:46:43.678Z,0.00
2018-08-07T01:47:43.668Z,0.00
2018-08-07T01:48:43.652Z,0.00
2018-08-07T01:49:43.639Z,0.00
2018-08-07T01:50:43.629Z,0.00
2018-08-07T01:51:43.617Z,0.00
2018-08-07T01:52:43.598Z,0.00
2018-08-07T01:53:43.585Z,0.00
2018-08-07T01:54:43.570Z,0.00
2018-08-07T01:55:43.556Z,0.00
2018-08-07T01:56:43.544Z,0.00
2018-08-07T01:57:43.531Z,0.00
2018-08-07T01:58:43.517Z,0.00
2018-08-07T01:59:43.508Z,0.00
2018-08-07T02:00:43.491Z,0.00
2018-08-07T02:01:43.477Z,0.00
2018-08-07T02:02:43.461Z,0.00
2018-08-07T02:03:43.448Z,0.00
2018-08-07T02:04:43.435Z,0.00
2018-08-07T02:05:43.423Z,0.00
2018-08-07T02:06:43.411Z,0.00
2018-08-07T02:07:43.397Z,0.00
2018-08-07T02:08:43.382Z,0.00
2018-08-07T02:09:43.369Z,0.00
2018-08-07T02:10:43.352Z,0.00
2018-08-07T02:11:43.340Z,0.00
2018-08-07T02:12:43.331Z,0.00
2018-08-07T02:13:43.314Z,0.00
2018-08-07T02:14:43.300Z,0.00
2018-08-07T02:15:43.287Z,0.00
2018-08-07T02:16:43.272Z,0.00
2018-08-07T02:17:43.260Z,0.00
2018-08-07T02:18:43.245Z,0.00
2018-08-07T02:19:43.229Z,0.00
2018-08-07T02:20:43.218Z,0.00
2018-08-07T02:21:43.205Z,0.00
2018-08-07T02:22:43.190Z,0.00
2018-08-07T02:23:43.178Z,0.00
2018-08-07T02:24:43.163Z,0.00
2018-08-07T02:25:43.149Z,0.00
2018-08-07T02:26:43.138Z,0.00
2018-08-07T02:27:43.119Z,0.00
2018-08-07T02:28:43.108Z,0.00
2018-08-07T02:29:43.096Z,0.00
2018-08-07T02:30:43.080Z,0.00
2018-08-07T02:31:43.072Z,0.00
2018-08-07T02:32:43.056Z,0.00
2018-08-07T02:33:43.045Z,0.00
2018-08-07T02:34:43.022Z,0.00
2018-08-07T02:35:43.015Z,0.00
2018-08-07T02:36:42.998Z,0.00
2018-08-07T02:37:42.989Z,0.00
2018-08-07T02:38:42.971Z,0.00
2018-08-07T02:39:42.964Z,0.00
2018-08-07T02:40:42.944Z,0.00
2018-08-07T02:41:42.929Z,0.00
2018-08-07T02:42:42.913Z,0.00
2018-08-07T02:43:42.912Z,0.00
2018-08-07T02:44:42.889Z,0.00
2018-08-07T02:45:42.874Z,0.00
2018-08-07T02:46:42.864Z,0.00
2018-08-07T02:47:42.846Z,0.00
2018-08-07T02:48:42.834Z,0.00
2018-08-07T02:49:42.824Z,0.00
2018-08-07T02:50:42.805Z,0.00
2018-08-07T02:51:42.794Z,0.00
2018-08-07T02:52:42.778Z,0.00
2018-08-07T02:53:42.766Z,0.00
2018-08-07T02:54:42.751Z,0.00
2018-08-07T02:55:42.738Z,0.00
2018-08-07T02:56:42.724Z,0.00
2018-08-07T02:57:42.712Z,0.00
2018-08-07T02:58:42.696Z,0.00
2018-08-07T02:59:42.682Z,0.00
2018-08-07T03:00:42.670Z,0.00
2018-08-07T03:01:42.656Z,0.00
2018-08-07T03:02:42.645Z,0.00
2018-08-07T03:03:42.629Z,0.00
2018-08-07T03:04:42.613Z,0.00
2018-08-07T03:05:42.599Z,0.00
2018-08-07T03:06:42.585Z,0.00
2018-08-07T03:07:42.573Z,0.00
2018-08-07T03:08:42.559Z,0.00
2018-08-07T03:09:42.545Z,0.00
2018-08-07T03:10:42.536Z,0.00
2018-08-07T03:11:42.518Z,0.00
2018-08-07T03:12:42.509Z,0.00
2018-08-07T03:13:42.493Z,0.00
2018-08-07T03:14:42.479Z,0.00
2018-08-07T03:15:42.462Z,0.00
2018-08-07T03:16:42.448Z,0.00
2018-08-07T03:17:42.435Z,0.00
2018-08-07T03:18:42.419Z,0.00
2018-08-07T03:19:42.405Z,0.00
2018-08-07T03:20:42.392Z,0.00
2018-08-07T03:21:42.380Z,0.00
2018-08-07T03:22:42.370Z,0.00
2018-08-07T03:23:42.350Z,0.00
2018-08-07T03:24:42.339Z,0.00
2018-08-07T03:25:42.323Z,0.00
2018-08-07T03:26:42.308Z,0.00
2018-08-07T03:27:42.296Z,0.00
2018-08-07T03:28:42.302Z,0.00
2018-08-07T03:29:42.267Z,0.00
2018-08-07T03:30:42.257Z,0.00
2018-08-07T03:31:42.241Z,0.00
2018-08-07T03:32:42.230Z,0.00
2018-08-07T03:33:42.213Z,0.00
2018-08-07T03:34:42.197Z,0.00
2018-08-07T03:35:42.184Z,0.00
2018-08-07T03:36:42.169Z,0.00
2018-08-07T03:37:42.157Z,0.00
2018-08-07T03:38:42.143Z,5.63
2018-08-07T03:39:42.128Z,5.63
2018-08-07T03:40:42.112Z,5.63
2018-08-07T03:41:42.099Z,5.63
2018-08-07T03:42:42.084Z,5.63
2018-08-07T03:43:42.070Z,5.63
2018-08-07T03:44:42.058Z,5.63
2018-08-07T03:45:42.048Z,5.63
2018-08-07T03:46:42.029Z,5.63
2018-08-07T03:47:42.022Z,5.63
2018-08-07T03:48:42.005Z,5.63
2018-08-07T03:49:41.989Z,5.63
2018-08-07T03:50:41.973Z,11.25
2018-08-07T03:51:41.960Z,11.25
2018-08-07T03:52:41.945Z,11.25
2018-08-07T03:53:41.931Z,11.25
2018-08-07T03:54:41.918Z,11.25
2018-08-07T03:55:41.904Z,11.25
2018-08-07T03:56:41.889Z,11.25
2018-08-07T03:57:41.876Z,11.25
2018-08-07T03:58:41.861Z,11.25
2018-08-07T03:59:41.848Z,11.25
2018-08-07T04:00:41.833Z,11.25
2018-08-07T04:01:41.818Z,16.88
2018-08-07T04:02:41.805Z,16.88
2018-08-07T04:03:41.790Z,16.88
2018-08-07T04:04:41.777Z,16.88
2018-08-07T04:05:41.764Z,16.88
2018-08-07T04:06:41.749Z,16.88
2018-08-07T04:07:41.735Z,16.88
2018-08-07T04:08:41.722Z,16.88
2018-08-07T04:09:41.710Z,16.88
2018-08-07T04:10:41.696Z,16.88
2018-08-07T04:11:41.747Z,16.88
2018-08-07T04:12:41.707Z,16.88
2018-08-07T04:13:41.654Z,16.88
2018-08-07T04:14:41.636Z,22.50
2018-08-07T04:15:41.622Z,22.50
2018-08-07T04:16:41.609Z,22.50
2018-08-07T04:17:41.594Z,22.50
2018-08-07T04:18:41.580Z,22.50
2018-08-07T04:19:41.566Z,22.50
2018-08-07T04:20:41.553Z,22.50
2018-08-07T04:21:41.540Z,22.50
2018-08-07T04:22:41.524Z,22.50
2018-08-07T04:23:41.509Z,22.50
2018-08-07T04:24:41.496Z,22.50
2018-08-07T04:25:41.483Z,28.13
2018-08-07T04:26:41.468Z,28.13
2018-08-07T04:27:41.456Z,28.13
2018-08-07T04:28:41.440Z,28.13
2018-08-07T04:29:41.426Z,28.13
2018-08-07T04:30:41.413Z,28.13
2018-08-07T04:31:41.400Z,28.13
2018-08-07T04:32:41.383Z,28.13
2018-08-07T04:33:41.374Z,28.13
2018-08-07T04:34:41.354Z,28.13
2018-08-07T04:35:41.341Z,28.13
2018-08-07T04:36:41.327Z,28.13
2018-08-07T04:37:41.315Z,28.13
2018-08-07T04:38:41.300Z,33.75
2018-08-07T04:39:41.292Z,33.75
2018-08-07T04:40:41.270Z,33.75
2018-08-07T04:41:41.255Z,33.75
2018-08-07T04:42:41.242Z,33.75
2018-08-07T04:43:41.228Z,33.75
2018-08-07T04:44:41.215Z,33.75
2018-08-07T04:45:41.236Z,33.75
2018-08-07T04:46:41.186Z,33.75
2018-08-07T04:47:41.172Z,33.75
2018-08-07T04:48:41.158Z,33.75
2018-08-07T04:49:41.145Z,33.75
2018-08-07T04:50:41.128Z,33.75
2018-08-07T04:51:41.152Z,33.75
2018-08-07T04:52:41.105Z,33.75
2018-08-07T04:53:41.091Z,39.38
2018-08-07T04:54:41.075Z,39.38
2018-08-07T04:55:41.059Z,39.38
2018-08-07T04:56:41.056Z,39.38
2018-08-07T04:57:41.031Z,39.38
2018-08-07T04:58:41.016Z,39.38
2018-08-07T04:59:41.002Z,39.38
2018-08-07T05:00:40.992Z,39.38
2018-08-07T05:01:40.977Z,39.38
2018-08-07T05:02:40.959Z,39.38
2018-08-07T05:03:40.947Z,39.38
2018-08-07T05:04:40.932Z,39.38
2018-08-07T05:05:40.918Z,39.38
2018-08-07T05:06:40.905Z,39.38
2018-08-07T05:07:40.891Z,39.38
2018-08-07T05:08:40.879Z,45.00
2018-08-07T05:09:40.867Z,45.00
2018-08-07T05:10:40.860Z,45.00
2018-08-07T05:11:40.834Z,45.00
2018-08-07T05:12:40.822Z,45.00
2018-08-07T05:13:40.806Z,45.00
2018-08-07T05:14:40.792Z,45.00
2018-08-07T05:15:40.778Z,45.00
2018-08-07T05:16:40.767Z,45.00
2018-08-07T05:17:40.750Z,45.00
2018-08-07T05:18:40.744Z,45.00
2018-08-07T05:19:40.741Z,45.00
2018-08-07T05:20:40.708Z,45.00
2018-08-07T05:21:40.699Z,50.63
2018-08-07T05:22:40.751Z,50.63
2018-08-07T05:23:40.667Z,50.63
2018-08-07T05:24:40.651Z,50.63
2018-08-07T05:25:40.645Z,50.63
2018-08-07T05:26:40.625Z,50.63
2018-08-07T05:27:40.614Z,50.63
2018-08-07T05:28:40.608Z,50.63
2018-08-07T05:29:40.599Z,50.63
2018-08-07T05:30:40.577Z,50.63
2018-08-07T05:31:40.558Z,50.63
2018-08-07T05:32:40.541Z,56.25
2018-08-07T05:33:40.539Z,56.25
2018-08-07T05:34:40.513Z,56.25
2018-08-07T05:35:40.503Z,56.25
2018-08-07T05:36:40.486Z,56.25
2018-08-07T05:37:40.473Z,56.25
2018-08-07T05:38:40.457Z,56.25
2018-08-07T05:39:40.446Z,56.25
2018-08-07T05:40:40.481Z,56.25
2018-08-07T05:41:40.416Z,61.88
2018-08-07T05:42:40.413Z,61.88
2018-08-07T05:43:40.392Z,61.88
2018-08-07T05:44:40.378Z,61.88
2018-08-07T05:45:40.362Z,61.88
2018-08-07T05:46:40.348Z,61.88
2018-08-07T05:47:40.337Z,61.88
2018-08-07T05:48:40.321Z,61.88
2018-08-07T05:49:40.312Z,61.88
2018-08-07T05:50:40.493Z,67.50
2018-08-07T05:51:40.285Z,67.50
2018-08-07T05:52:40.271Z,67.50
2018-08-07T05:53:40.254Z,67.50
2018-08-07T05:54:40.239Z,67.50
2018-08-07T05:55:40.238Z,67.50
2018-08-07T05:56:40.264Z,67.50
2018-08-07T05:57:40.197Z,73.13
2018-08-07T05:58:40.228Z,73.13
2018-08-07T05:59:40.171Z,73.13
2018-08-07T06:00:40.156Z,73.13
2018-08-07T06:01:40.145Z,73.13
2018-08-07T06:02:40.134Z,73.13
2018-08-07T06:03:40.117Z,73.13
2018-08-07T06:04:40.105Z,73.13
2018-08-07T06:05:40.091Z,73.13
2018-08-07T06:06:40.075Z,73.13
2018-08-07T06:07:40.061Z,78.75
2018-08-07T06:08:40.050Z,78.75
2018-08-07T06:09:40.037Z,78.75
2018-08-07T06:10:40.028Z,78.75
2018-08-07T06:11:40.061Z,78.75
2018-08-07T06:12:39.996Z,78.75
2018-08-07T06:13:39.981Z,78.75
2018-08-07T06:14:39.968Z,84.38
2018-08-07T06:15:39.955Z,84.38
2018-08-07T06:16:39.943Z,84.38
2018-08-07T06:17:39.932Z,84.38
2018-08-07T06:18:39.916Z,84.38
2018-08-07T06:19:40.019Z,84.38
2018-08-07T06:20:39.888Z,84.38
2018-08-07T06:21:39.876Z,84.38
2018-08-07T06:22:39.912Z,90.00
2018-08-07T06:23:39.848Z,90.00
2018-08-07T06:24:39.839Z,90.00
2018-08-07T06:25:39.841Z,90.00
2018-08-07T06:26:39.808Z,90.00
2018-08-07T06:27:39.799Z,90.00
2018-08-07T06:28:39.859Z,90.00
2018-08-07T06:29:39.771Z,90.00
2018-08-07T06:30:39.758Z,90.00
2018-08-07T06:31:39.743Z,95.63
2018-08-07T06:32:39.732Z,95.63
2018-08-07T06:33:39.720Z,95.63
2018-08-07T06:34:39.705Z,95.63
2018-08-07T06:35:39.693Z,101.25
2018-08-07T06:36:39.679Z,101.25
2018-08-07T06:37:39.693Z,101.25
2018-08-07T06:38:39.655Z,101.25
2018-08-07T06:39:39.640Z,101.25
2018-08-07T06:40:39.632Z,106.88
2018-08-07T06:41:39.632Z,106.88
2018-08-07T06:42:39.606Z,106.88
2018-08-07T06:43:39.594Z,106.88
2018-08-07T06:44:39.580Z,106.88
2018-08-07T06:45:39.571Z,106.88
2018-08-07T06:46:39.554Z,112.50
2018-08-07T06:47:39.542Z,112.50
2018-08-07T06:48:39.530Z,112.50
2018-08-07T06:49:39.517Z,112.50
2018-08-07T06:50:39.506Z,118.13
2018-08-07T06:51:39.493Z,118.13
2018-08-07T06:52:39.482Z,118.13
2018-08-07T06:53:39.469Z,123.75
2018-08-07T06:54:39.457Z,123.75
2018-08-07T06:55:39.445Z,123.75
2018-08-07T06:56:39.435Z,129.38
2018-08-07T06:57:39.421Z,129.38
2018-08-07T06:58:39.408Z,135.00
2018-08-07T06:59:39.395Z,129.38
2018-08-07T07:00:39.384Z,129.38
2018-08-07T07:01:39.373Z,135.00
2018-08-07T07:02:39.413Z,135.00
2018-08-07T07:03:39.351Z,140.63
2018-08-07T07:04:39.336Z,140.63
2018-08-07T07:05:39.332Z,140.63
2018-08-07T07:06:39.313Z,140.63
2018-08-07T07:07:39.306Z,140.63
2018-08-07T07:08:39.290Z,146.25
2018-08-07T07:09:39.310Z,146.25
2018-08-07T07:10:39.269Z,151.88
2018-08-07T07:11:39.255Z,151.88
2018-08-07T07:12:39.245Z,151.88
2018-08-07T07:13:39.235Z,157.50
2018-08-07T07:14:39.223Z,163.13
2018-08-07T07:15:39.215Z,157.50
2018-08-07T07:16:39.201Z,163.13
2018-08-07T07:17:39.191Z,163.13
2018-08-07T07:18:39.181Z,168.75
2018-08-07T07:19:39.170Z,168.75
2018-08-07T07:20:39.158Z,174.38
2018-08-07T07:21:39.146Z,174.38
2018-08-07T07:22:39.136Z,180.00
2018-08-07T07:23:39.124Z,180.00
2018-08-07T07:24:39.112Z,180.00
2018-08-07T07:25:39.104Z,185.63
2018-08-07T07:26:39.104Z,185.63
2018-08-07T07:27:39.082Z,191.25
2018-08-07T07:28:39.080Z,196.88
2018-08-07T07:29:39.063Z,208.13
2018-08-07T07:30:39.052Z,230.63
2018-08-07T07:31:39.038Z,230.63
2018-08-07T07:32:39.028Z,241.88
2018-08-07T07:33:39.019Z,264.38
2018-08-07T07:34:39.043Z,298.13
2018-08-07T07:35:38.996Z,326.25
2018-08-07T07:36:38.987Z,590.63
2018-08-07T07:37:38.978Z,1383.75
2018-08-07T07:38:38.967Z,2317.50
2018-08-07T07:39:38.958Z,2998.13
2018-08-07T07:40:39.000Z,3110.63
2018-08-07T07:41:38.939Z,3133.13
2018-08-07T07:42:38.929Z,3110.63
2018-08-07T07:43:38.920Z,3082.50
2018-08-07T07:44:38.911Z,3195.00
2018-08-07T07:45:38.904Z,123.75
2018-08-07T07:46:38.924Z,123.75
2018-08-07T07:47:38.885Z,123.75
2018-08-07T07:48:38.882Z,123.75
2018-08-07T07:49:38.873Z,123.75
2018-08-07T07:50:38.860Z,123.75
2018-08-07T07:51:38.852Z,129.38
2018-08-07T07:52:38.846Z,129.38
2018-08-07T07:53:38.842Z,129.38
2018-08-07T07:54:38.840Z,129.38
2018-08-07T07:55:38.827Z,129.38
2018-08-07T07:56:38.821Z,129.38
2018-08-07T07:57:38.809Z,129.38
2018-08-07T07:58:38.798Z,135.00
2018-08-07T07:59:38.792Z,135.00
2018-08-07T08:00:38.786Z,135.00
2018-08-07T08:01:38.774Z,135.00
2018-08-07T08:02:38.772Z,135.00
2018-08-07T08:03:38.761Z,135.00
2018-08-07T08:04:38.750Z,135.00
2018-08-07T08:05:38.802Z,135.00
2018-08-07T08:06:38.739Z,135.00
2018-08-07T08:07:38.729Z,140.63
2018-08-07T08:08:38.720Z,140.63
2018-08-07T08:09:38.712Z,140.63
2018-08-07T08:10:38.708Z,140.63
2018-08-07T08:11:38.696Z,140.63
2018-08-07T08:12:38.692Z,140.63
2018-08-07T08:13:38.687Z,140.63
2018-08-07T08:14:38.671Z,146.25
2018-08-07T08:15:38.670Z,146.25
2018-08-07T08:16:38.681Z,146.25
2018-08-07T08:17:38.649Z,146.25
2018-08-07T08:18:38.641Z,146.25
2018-08-07T08:19:38.634Z,146.25
2018-08-07T08:20:38.627Z,146.25
2018-08-07T08:21:38.619Z,146.25
2018-08-07T08:22:38.617Z,146.25
2018-08-07T08:23:38.604Z,151.88
2018-08-07T08:24:38.594Z,151.88
2018-08-07T08:25:38.586Z,151.88
2018-08-07T08:26:38.579Z,151.88
2018-08-07T08:27:38.569Z,151.88
2018-08-07T08:28:38.563Z,151.88
2018-08-07T08:29:38.563Z,151.88
2018-08-07T08:30:38.549Z,157.50
2018-08-07T08:31:38.540Z,157.50
2018-08-07T08:32:38.532Z,157.50
2018-08-07T08:33:38.527Z,157.50
2018-08-07T08:34:38.522Z,157.50
2018-08-07T08:35:38.521Z,157.50
2018-08-07T08:36:38.502Z,157.50
2018-08-07T08:37:38.496Z,157.50
2018-08-07T08:38:38.486Z,157.50
2018-08-07T08:39:38.478Z,163.13
2018-08-07T08:40:38.472Z,163.13
2018-08-07T08:41:38.466Z,163.13
2018-08-07T08:42:38.456Z,163.13
2018-08-07T08:43:38.448Z,163.13
2018-08-07T08:44:38.441Z,163.13
2018-08-07T08:45:38.435Z,163.13
2018-08-07T08:46:38.425Z,168.75
2018-08-07T08:47:38.424Z,168.75
2018-08-07T08:48:38.522Z,168.75
2018-08-07T08:49:38.405Z,168.75
2018-08-07T08:50:38.400Z,168.75
2018-08-07T08:51:38.389Z,168.75
2018-08-07T08:52:38.381Z,168.75
2018-08-07T08:53:38.375Z,168.75
2018-08-07T08:54:38.365Z,168.75
2018-08-07T08:55:38.360Z,174.38
2018-08-07T08:56:38.354Z,174.38
2018-08-07T08:57:38.350Z,174.38
2018-08-07T08:58:38.337Z,174.38
2018-08-07T08:59:38.331Z,174.38
2018-08-07T09:00:38.325Z,174.38
2018-08-07T09:01:38.319Z,174.38
2018-08-07T09:02:38.311Z,174.38
2018-08-07T09:03:38.304Z,180.00
2018-08-07T09:04:38.293Z,185.63
2018-08-07T09:05:38.290Z,185.63
2018-08-07T09:06:38.280Z,180.00
2018-08-07T09:07:38.273Z,180.00
2018-08-07T09:08:38.265Z,180.00
2018-08-07T09:09:38.258Z,180.00
2018-08-07T09:10:38.375Z,180.00
2018-08-07T09:11:38.245Z,180.00
2018-08-07T09:12:38.241Z,180.00
2018-08-07T09:13:38.234Z,180.00
2018-08-07T09:14:38.223Z,180.00
2018-08-07T09:15:38.217Z,180.00
2018-08-07T09:16:38.212Z,180.00
2018-08-07T09:17:38.205Z,180.00
2018-08-07T09:18:38.198Z,185.63
2018-08-07T09:19:38.272Z,185.63
2018-08-07T09:20:38.182Z,185.63
2018-08-07T09:21:38.179Z,185.63
2018-08-07T09:22:38.170Z,185.63
2018-08-07T09:23:38.767Z,185.63
2018-08-07T09:24:38.155Z,185.63
2018-08-07T09:25:38.203Z,185.63
2018-08-07T09:26:38.148Z,191.25
2018-08-07T09:27:38.133Z,191.25
2018-08-07T09:28:38.129Z,191.25
2018-08-07T09:29:38.125Z,191.25
2018-08-07T09:30:38.112Z,191.25
2018-08-07T09:31:38.106Z,191.25
2018-08-07T09:32:38.101Z,191.25
2018-08-07T09:33:38.094Z,191.25
2018-08-07T09:34:38.089Z,196.88
2018-08-07T09:35:38.082Z,196.88
2018-08-07T09:36:38.895Z,196.88
2018-08-07T09:37:38.072Z,202.50
2018-08-07T09:38:38.061Z,202.50
2018-08-07T09:39:38.096Z,202.50
2018-08-07T09:40:38.049Z,208.13
2018-08-07T09:41:38.043Z,208.13
2018-08-07T09:42:38.039Z,208.13
2018-08-07T09:43:38.029Z,208.13
2018-08-07T09:44:38.024Z,208.13
2018-08-07T09:45:38.016Z,208.13
2018-08-07T09:46:38.076Z,213.75
2018-08-07T09:47:38.006Z,213.75
2018-08-07T09:48:38.001Z,213.75
2018-08-07T09:49:38.015Z,213.75
2018-08-07T09:50:37.991Z,213.75
2018-08-07T09:51:37.978Z,213.75
2018-08-07T09:52:37.974Z,219.38
2018-08-07T09:53:37.971Z,219.38
2018-08-07T09:54:37.965Z,225.00
2018-08-07T09:55:37.956Z,219.38
2018-08-07T09:56:37.959Z,219.38
2018-08-07T09:57:37.947Z,219.38
2018-08-07T09:58:37.962Z,219.38
2018-08-07T09:59:37.930Z,219.38
2018-08-07T10:00:37.925Z,225.00
2018-08-07T10:01:37.923Z,225.00
2018-08-07T10:02:37.907Z,225.00
2018-08-07T10:03:37.902Z,225.00
2018-08-07T10:04:37.895Z,225.00
2018-08-07T10:05:37.956Z,225.00
2018-08-07T10:06:37.880Z,225.00
2018-08-07T10:07:37.878Z,230.63
2018-08-07T10:08:37.866Z,230.63
2018-08-07T10:09:37.858Z,230.63
2018-08-07T10:10:37.850Z,230.63
2018-08-07T10:11:37.846Z,230.63
2018-08-07T10:12:37.867Z,230.63
2018-08-07T10:13:37.835Z,230.63
2018-08-07T10:14:37.824Z,230.63
2018-08-07T10:15:37.823Z,230.63
2018-08-07T10:16:37.815Z,230.63
2018-08-07T10:17:37.806Z,236.25
2018-08-07T10:18:37.796Z,236.25
2018-08-07T10:19:37.790Z,236.25
2018-08-07T10:20:37.789Z,236.25
2018-08-07T10:21:37.780Z,236.25
2018-08-07T10:22:37.766Z,236.25
2018-08-07T10:23:37.764Z,236.25
2018-08-07T10:24:37.753Z,236.25
2018-08-07T10:25:37.748Z,236.25
2018-08-07T10:26:37.742Z,236.25
2018-08-07T10:27:37.737Z,241.88
2018-08-07T10:28:37.726Z,241.88
2018-08-07T10:29:37.719Z,241.88
2018-08-07T10:30:37.796Z,241.88
2018-08-07T10:31:37.704Z,241.88
2018-08-07T10:32:37.705Z,241.88
2018-08-07T10:33:37.696Z,241.88
2018-08-07T10:34:37.684Z,241.88
2018-08-07T10:35:37.681Z,247.50
2018-08-07T10:36:37.671Z,241.88
2018-08-07T10:37:37.669Z,247.50
2018-08-07T10:38:37.659Z,247.50
2018-08-07T10:39:37.650Z,247.50
2018-08-07T10:40:37.698Z,247.50
2018-08-07T10:41:37.636Z,247.50
2018-08-07T10:42:37.628Z,253.13
2018-08-07T10:43:37.782Z,247.50
2018-08-07T10:44:37.613Z,253.13
2018-08-07T10:45:37.607Z,253.13
2018-08-07T10:46:37.613Z,258.75
2018-08-07T10:47:37.598Z,253.13
2018-08-07T10:48:37.588Z,253.13
2018-08-07T10:49:37.581Z,253.13
2018-08-07T10:50:37.573Z,253.13
2018-08-07T10:51:37.565Z,253.13
2018-08-07T10:52:37.560Z,253.13
2018-08-07T10:53:37.559Z,258.75
2018-08-07T10:54:37.554Z,253.13
2018-08-07T10:55:37.540Z,253.13
2018-08-07T10:56:37.624Z,253.13
2018-08-07T10:57:37.530Z,253.13
2018-08-07T10:58:37.525Z,253.13
2018-08-07T10:59:37.513Z,258.75
2018-08-07T11:00:37.509Z,258.75
2018-08-07T11:01:37.501Z,258.75
2018-08-07T11:02:37.495Z,258.75
2018-08-07T11:03:37.487Z,258.75
2018-08-07T11:04:37.485Z,258.75
2018-08-07T11:05:37.542Z,258.75
2018-08-07T11:06:37.468Z,258.75
2018-08-07T11:07:37.462Z,258.75
2018-08-07T11:08:37.456Z,258.75
2018-08-07T11:09:37.451Z,258.75
2018-08-07T11:10:37.444Z,264.38
2018-08-07T11:11:37.437Z,264.38
2018-08-07T11:12:37.428Z,264.38
2018-08-07T11:13:37.437Z,258.75
2018-08-07T11:14:37.418Z,253.13
2018-08-07T11:15:37.410Z,253.13
2018-08-07T11:16:37.404Z,258.75
2018-08-07T11:17:37.398Z,258.75
2018-08-07T11:18:37.390Z,258.75
2018-08-07T11:19:37.387Z,258.75
2018-08-07T11:20:37.383Z,258.75
2018-08-07T11:21:37.380Z,258.75
2018-08-07T11:22:37.365Z,258.75
2018-08-07T11:23:37.361Z,258.75
2018-08-07T11:24:37.388Z,258.75
2018-08-07T11:25:37.348Z,258.75
2018-08-07T11:26:37.345Z,264.38
2018-08-07T11:27:37.338Z,264.38
2018-08-07T11:28:37.329Z,264.38
2018-08-07T11:29:37.330Z,264.38
2018-08-07T11:30:37.324Z,264.38
2018-08-07T11:31:37.315Z,264.38
2018-08-07T11:32:37.303Z,264.38
2018-08-07T11:33:37.303Z,264.38
2018-08-07T11:34:37.299Z,270.00
2018-08-07T11:35:37.289Z,270.00
2018-08-07T11:36:37.282Z,270.00
2018-08-07T11:37:37.277Z,275.63
2018-08-07T11:38:37.273Z,281.25
2018-08-07T11:39:37.263Z,275.63
2018-08-07T11:40:37.260Z,270.00
2018-08-07T11:41:37.258Z,270.00
2018-08-07T11:42:37.248Z,275.63
2018-08-07T11:43:37.244Z,275.63
2018-08-07T11:44:37.235Z,275.63
2018-08-07T11:45:37.229Z,281.25
2018-08-07T11:46:37.226Z,281.25
2018-08-07T11:47:37.216Z,281.25
2018-08-07T11:48:37.213Z,281.25
2018-08-07T11:49:37.209Z,281.25
2018-08-07T11:50:37.202Z,286.88
2018-08-07T11:51:37.209Z,286.88
2018-08-07T11:52:37.189Z,292.50
2018-08-07T11:53:37.183Z,292.50
2018-08-07T11:54:37.180Z,298.13
2018-08-07T11:55:37.171Z,298.13
2018-08-07T11:56:37.177Z,303.75
2018-08-07T11:57:37.161Z,309.38
2018-08-07T11:58:37.157Z,315.00
2018-08-07T11:59:37.149Z,326.25
2018-08-07T12:00:37.150Z,331.88
2018-08-07T12:01:37.131Z,348.75
2018-08-07T12:02:37.134Z,371.25
2018-08-07T12:03:37.124Z,405.00
2018-08-07T12:04:37.121Z,444.38
2018-08-07T12:05:37.120Z,551.25
2018-08-07T12:06:37.115Z,646.88
2018-08-07T12:07:37.107Z,742.50
2018-08-07T12:08:37.107Z,826.88
2018-08-07T12:09:37.097Z,950.63
2018-08-07T12:10:37.096Z,1535.63
2018-08-07T12:11:37.090Z,3279.38
2018-08-07T12:12:37.085Z,4702.50
2018-08-07T12:13:37.103Z,4854.38
2018-08-07T12:14:37.081Z,4876.88
2018-08-07T12:15:37.079Z,4848.75
2018-08-07T12:16:37.074Z,4674.38
2018-08-07T12:17:37.070Z,4325.63
2018-08-07T12:18:37.068Z,3526.88
2018-08-07T12:19:37.070Z,1648.13
2018-08-07T12:20:37.061Z,1209.38
2018-08-07T12:21:37.107Z,3290.63
2018-08-07T12:22:39.671Z,4432.50
2018-08-07T12:23:37.050Z,4758.75
2018-08-07T12:24:37.047Z,4680.00
2018-08-07T12:25:37.044Z,4680.00
2018-08-07T12:26:37.045Z,4561.88
2018-08-07T12:27:37.056Z,3346.88
2018-08-07T12:28:37.038Z,2165.63
2018-08-07T12:29:37.034Z,461.25
2018-08-07T12:30:37.031Z,483.75
2018-08-07T12:31:37.030Z,1479.38
2018-08-07T12:32:37.028Z,590.63
2018-08-07T12:33:37.023Z,410.63
2018-08-07T12:34:37.026Z,393.75
2018-08-07T12:35:37.019Z,388.13
2018-08-07T12:36:37.016Z,388.13
2018-08-07T12:37:37.015Z,376.88
2018-08-07T12:38:37.011Z,376.88
2018-08-07T12:39:37.009Z,376.88
2018-08-07T12:40:37.007Z,376.88
2018-08-07T12:41:37.006Z,376.88
2018-08-07T12:42:37.002Z,382.50
2018-08-07T12:43:37.001Z,393.75
2018-08-07T12:44:36.998Z,405.00
2018-08-07T12:45:37.008Z,405.00
2018-08-07T12:46:37.010Z,596.25
2018-08-07T12:47:36.990Z,753.75